sensor_id;sensor_type;location;lat;lon;timestamp;temperature;humidity
30047;DHT22;16878;52.542;13.426;2022-07-19T00:02:18;21.70;72.30
30047;DHT22;16878;52.542;13.426;2022-07-19T00:04:44;21.60;72.40
30047;DHT22;16878;52.542;13.426;2022-07-19T00:07:09;21.60;72.60
30047;DHT22;16878;52.542;13.426;2022-07-19T00:09:35;21.60;72.80
30047;DHT22;16878;52.542;13.426;2022-07-19T00:12:00;21.60;73.10
30047;DHT22;16878;52.542;13.426;2022-07-19T00:14:26;21.50;73.20
30047;DHT22;16878;52.542;13.426;2022-07-19T00:16:51;21.50;73.50
30047;DHT22;16878;52.542;13.426;2022-07-19T00:19:17;21.50;73.20
30047;DHT22;16878;52.542;13.426;2022-07-19T00:21:42;21.50;73.40
30047;DHT22;16878;52.542;13.426;2022-07-19T00:24:08;21.40;73.80
30047;DHT22;16878;52.542;13.426;2022-07-19T00:26:34;21.40;73.60
30047;DHT22;16878;52.542;13.426;2022-07-19T00:28:59;21.40;73.70
30047;DHT22;16878;52.542;13.426;2022-07-19T00:31:26;21.30;73.80
30047;DHT22;16878;52.542;13.426;2022-07-19T00:33:52;21.30;73.90
30047;DHT22;16878;52.542;13.426;2022-07-19T00:36:18;21.30;74.00
30047;DHT22;16878;52.542;13.426;2022-07-19T00:38:44;21.20;74.10
30047;DHT22;16878;52.542;13.426;2022-07-19T00:41:09;21.20;74.40
30047;DHT22;16878;52.542;13.426;2022-07-19T00:43:35;21.20;74.50
30047;DHT22;16878;52.542;13.426;2022-07-19T00:46:01;21.20;74.50
30047;DHT22;16878;52.542;13.426;2022-07-19T00:48:27;21.20;74.80
30047;DHT22;16878;52.542;13.426;2022-07-19T00:50:52;21.20;74.80
30047;DHT22;16878;52.542;13.426;2022-07-19T00:53:18;21.10;74.90
30047;DHT22;16878;52.542;13.426;2022-07-19T00:55:44;21.10;74.80
30047;DHT22;16878;52.542;13.426;2022-07-19T00:58:11;21.10;74.90
30047;DHT22;16878;52.542;13.426;2022-07-19T01:00:39;21.10;75.10
30047;DHT22;16878;52.542;13.426;2022-07-19T01:03:06;21.10;75.60
30047;DHT22;16878;52.542;13.426;2022-07-19T01:05:33;21.10;75.20
30047;DHT22;16878;52.542;13.426;2022-07-19T01:07:59;21.10;74.60
30047;DHT22;16878;52.542;13.426;2022-07-19T01:10:24;21.00;75.30
30047;DHT22;16878;52.542;13.426;2022-07-19T01:12:51;21.00;76.00
30047;DHT22;16878;52.542;13.426;2022-07-19T01:15:17;21.00;75.20
30047;DHT22;16878;52.542;13.426;2022-07-19T01:17:43;20.90;75.40
30047;DHT22;16878;52.542;13.426;2022-07-19T01:20:09;20.90;75.60
30047;DHT22;16878;52.542;13.426;2022-07-19T01:22:35;20.90;76.30
30047;DHT22;16878;52.542;13.426;2022-07-19T01:25:00;20.90;75.50
30047;DHT22;16878;52.542;13.426;2022-07-19T01:27:26;20.80;75.80
30047;DHT22;16878;52.542;13.426;2022-07-19T01:29:51;20.80;76.80
30047;DHT22;16878;52.542;13.426;2022-07-19T01:32:17;20.80;76.20
30047;DHT22;16878;52.542;13.426;2022-07-19T01:34:42;20.80;77.10
30047;DHT22;16878;52.542;13.426;2022-07-19T01:37:08;20.80;77.30
30047;DHT22;16878;52.542;13.426;2022-07-19T01:39:33;20.70;77.80
30047;DHT22;16878;52.542;13.426;2022-07-19T01:41:59;20.70;78.30
30047;DHT22;16878;52.542;13.426;2022-07-19T01:44:24;20.60;78.10
30047;DHT22;16878;52.542;13.426;2022-07-19T01:46:50;20.60;77.70
30047;DHT22;16878;52.542;13.426;2022-07-19T01:49:15;20.60;78.50
30047;DHT22;16878;52.542;13.426;2022-07-19T01:51:41;20.60;77.60
30047;DHT22;16878;52.542;13.426;2022-07-19T01:54:06;20.50;77.60
30047;DHT22;16878;52.542;13.426;2022-07-19T01:56:32;20.50;78.00
30047;DHT22;16878;52.542;13.426;2022-07-19T01:58:57;20.50;77.70
30047;DHT22;16878;52.542;13.426;2022-07-19T02:01:23;20.50;78.90
30047;DHT22;16878;52.542;13.426;2022-07-19T02:03:48;20.50;78.90
30047;DHT22;16878;52.542;13.426;2022-07-19T02:06:14;20.40;79.30
30047;DHT22;16878;52.542;13.426;2022-07-19T02:08:40;20.40;80.20
30047;DHT22;16878;52.542;13.426;2022-07-19T02:11:07;20.40;80.40
30047;DHT22;16878;52.542;13.426;2022-07-19T02:13:51;20.30;80.90
30047;DHT22;16878;52.542;13.426;2022-07-19T02:16:16;20.20;80.30
30047;DHT22;16878;52.542;13.426;2022-07-19T02:18:42;20.20;81.50
30047;DHT22;16878;52.542;13.426;2022-07-19T02:21:07;20.20;81.90
30047;DHT22;16878;52.542;13.426;2022-07-19T02:23:33;20.20;81.50
30047;DHT22;16878;52.542;13.426;2022-07-19T02:25:58;20.10;80.50
30047;DHT22;16878;52.542;13.426;2022-07-19T02:28:24;20.20;80.60
30047;DHT22;16878;52.542;13.426;2022-07-19T02:30:49;20.10;80.80
30047;DHT22;16878;52.542;13.426;2022-07-19T02:33:15;20.10;80.70
30047;DHT22;16878;52.542;13.426;2022-07-19T02:35:40;20.10;80.50
30047;DHT22;16878;52.542;13.426;2022-07-19T02:38:06;20.10;80.50
30047;DHT22;16878;52.542;13.426;2022-07-19T02:40:31;20.10;80.90
30047;DHT22;16878;52.542;13.426;2022-07-19T02:42:57;20.10;80.80
30047;DHT22;16878;52.542;13.426;2022-07-19T02:45:22;20.10;81.20
30047;DHT22;16878;52.542;13.426;2022-07-19T02:47:48;20.10;81.30
30047;DHT22;16878;52.542;13.426;2022-07-19T02:50:13;20.10;81.70
30047;DHT22;16878;52.542;13.426;2022-07-19T02:52:39;20.10;82.20
30047;DHT22;16878;52.542;13.426;2022-07-19T02:55:05;20.00;82.60
30047;DHT22;16878;52.542;13.426;2022-07-19T02:57:30;20.00;83.20
30047;DHT22;16878;52.542;13.426;2022-07-19T02:59:56;19.90;83.50
30047;DHT22;16878;52.542;13.426;2022-07-19T03:02:21;19.90;83.20
30047;DHT22;16878;52.542;13.426;2022-07-19T03:04:47;19.90;83.60
30047;DHT22;16878;52.542;13.426;2022-07-19T03:07:12;19.90;83.30
30047;DHT22;16878;52.542;13.426;2022-07-19T03:09:38;19.80;83.90
30047;DHT22;16878;52.542;13.426;2022-07-19T03:12:04;19.80;83.70
30047;DHT22;16878;52.542;13.426;2022-07-19T03:14:29;19.80;83.70
30047;DHT22;16878;52.542;13.426;2022-07-19T03:16:55;19.80;83.60
30047;DHT22;16878;52.542;13.426;2022-07-19T03:19:21;19.80;83.90
30047;DHT22;16878;52.542;13.426;2022-07-19T03:21:46;19.80;84.10
30047;DHT22;16878;52.542;13.426;2022-07-19T03:24:12;19.80;83.80
30047;DHT22;16878;52.542;13.426;2022-07-19T03:26:37;19.80;84.10
30047;DHT22;16878;52.542;13.426;2022-07-19T03:29:03;19.80;84.40
30047;DHT22;16878;52.542;13.426;2022-07-19T03:31:29;19.80;84.90
30047;DHT22;16878;52.542;13.426;2022-07-19T03:33:54;19.80;85.30
30047;DHT22;16878;52.542;13.426;2022-07-19T03:36:20;19.80;85.30
30047;DHT22;16878;52.542;13.426;2022-07-19T03:38:45;19.80;85.60
30047;DHT22;16878;52.542;13.426;2022-07-19T03:41:11;19.80;85.80
30047;DHT22;16878;52.542;13.426;2022-07-19T03:43:37;19.90;85.80
30047;DHT22;16878;52.542;13.426;2022-07-19T03:46:02;19.90;85.60
30047;DHT22;16878;52.542;13.426;2022-07-19T03:48:28;19.90;85.70
30047;DHT22;16878;52.542;13.426;2022-07-19T03:50:53;19.90;85.40
30047;DHT22;16878;52.542;13.426;2022-07-19T03:53:19;20.00;85.40
30047;DHT22;16878;52.542;13.426;2022-07-19T03:55:45;20.00;85.30
30047;DHT22;16878;52.542;13.426;2022-07-19T03:58:10;20.00;85.20
30047;DHT22;16878;52.542;13.426;2022-07-19T04:00:36;20.00;85.30
30047;DHT22;16878;52.542;13.426;2022-07-19T04:03:01;20.00;85.50
30047;DHT22;16878;52.542;13.426;2022-07-19T04:05:27;20.00;85.60
30047;DHT22;16878;52.542;13.426;2022-07-19T04:07:52;20.10;85.30
30047;DHT22;16878;52.542;13.426;2022-07-19T04:10:18;20.10;85.00
30047;DHT22;16878;52.542;13.426;2022-07-19T04:12:43;20.10;85.00
30047;DHT22;16878;52.542;13.426;2022-07-19T04:15:09;20.20;84.60
30047;DHT22;16878;52.542;13.426;2022-07-19T04:17:35;20.20;84.50
30047;DHT22;16878;52.542;13.426;2022-07-19T04:20:00;20.30;84.50
30047;DHT22;16878;52.542;13.426;2022-07-19T04:22:26;20.30;84.20
30047;DHT22;16878;52.542;13.426;2022-07-19T04:24:51;20.40;84.30
30047;DHT22;16878;52.542;13.426;2022-07-19T04:27:17;20.40;84.40
30047;DHT22;16878;52.542;13.426;2022-07-19T04:29:42;20.50;83.90
30047;DHT22;16878;52.542;13.426;2022-07-19T04:32:08;20.70;83.00
30047;DHT22;16878;52.542;13.426;2022-07-19T04:34:33;20.90;82.40
30047;DHT22;16878;52.542;13.426;2022-07-19T04:36:59;21.10;81.60
30047;DHT22;16878;52.542;13.426;2022-07-19T04:39:24;21.20;80.80
30047;DHT22;16878;52.542;13.426;2022-07-19T04:41:50;21.40;80.00
30047;DHT22;16878;52.542;13.426;2022-07-19T04:44:15;21.60;79.10
30047;DHT22;16878;52.542;13.426;2022-07-19T04:46:41;21.90;77.80
30047;DHT22;16878;52.542;13.426;2022-07-19T04:49:06;22.30;76.60
30047;DHT22;16878;52.542;13.426;2022-07-19T04:51:32;22.80;74.90
30047;DHT22;16878;52.542;13.426;2022-07-19T04:53:57;23.60;73.00
30047;DHT22;16878;52.542;13.426;2022-07-19T04:56:23;24.70;70.60
30047;DHT22;16878;52.542;13.426;2022-07-19T04:58:48;26.20;68.00
30047;DHT22;16878;52.542;13.426;2022-07-19T05:01:14;27.80;64.90
30047;DHT22;16878;52.542;13.426;2022-07-19T05:03:39;29.00;61.30
30047;DHT22;16878;52.542;13.426;2022-07-19T05:06:05;30.20;58.20
30047;DHT22;16878;52.542;13.426;2022-07-19T05:08:30;31.50;55.40
30047;DHT22;16878;52.542;13.426;2022-07-19T05:10:56;32.80;53.00
30047;DHT22;16878;52.542;13.426;2022-07-19T05:13:21;33.90;50.90
30047;DHT22;16878;52.542;13.426;2022-07-19T05:15:47;35.00;49.20
30047;DHT22;16878;52.542;13.426;2022-07-19T05:18:12;35.60;48.00
30047;DHT22;16878;52.542;13.426;2022-07-19T05:20:38;35.80;46.90
30047;DHT22;16878;52.542;13.426;2022-07-19T05:23:03;36.70;46.30
30047;DHT22;16878;52.542;13.426;2022-07-19T05:25:29;37.20;45.60
30047;DHT22;16878;52.542;13.426;2022-07-19T05:27:54;37.50;44.80
30047;DHT22;16878;52.542;13.426;2022-07-19T05:30:22;38.30;44.50
30047;DHT22;16878;52.542;13.426;2022-07-19T05:32:47;38.40;43.70
30047;DHT22;16878;52.542;13.426;2022-07-19T05:35:13;38.80;42.90
30047;DHT22;16878;52.542;13.426;2022-07-19T05:37:38;39.10;42.20
30047;DHT22;16878;52.542;13.426;2022-07-19T05:40:04;39.60;41.90
30047;DHT22;16878;52.542;13.426;2022-07-19T05:42:30;39.80;41.10
30047;DHT22;16878;52.542;13.426;2022-07-19T05:44:55;39.90;41.00
30047;DHT22;16878;52.542;13.426;2022-07-19T05:47:21;40.40;40.90
30047;DHT22;16878;52.542;13.426;2022-07-19T05:49:46;40.40;40.50
30047;DHT22;16878;52.542;13.426;2022-07-19T05:52:12;40.80;40.20
30047;DHT22;16878;52.542;13.426;2022-07-19T05:54:37;40.90;39.70
30047;DHT22;16878;52.542;13.426;2022-07-19T05:57:03;41.00;39.60
30047;DHT22;16878;52.542;13.426;2022-07-19T05:59:28;41.30;39.90
30047;DHT22;16878;52.542;13.426;2022-07-19T06:01:54;41.40;39.10
30047;DHT22;16878;52.542;13.426;2022-07-19T06:04:19;41.30;38.90
30047;DHT22;16878;52.542;13.426;2022-07-19T06:06:45;41.50;38.70
30047;DHT22;16878;52.542;13.426;2022-07-19T06:09:10;41.90;38.70
30047;DHT22;16878;52.542;13.426;2022-07-19T06:11:38;41.90;38.30
30047;DHT22;16878;52.542;13.426;2022-07-19T06:14:04;42.20;38.00
30047;DHT22;16878;52.542;13.426;2022-07-19T06:16:31;42.20;38.20
30047;DHT22;16878;52.542;13.426;2022-07-19T06:18:57;42.50;38.00
30047;DHT22;16878;52.542;13.426;2022-07-19T06:21:22;42.70;37.60
30047;DHT22;16878;52.542;13.426;2022-07-19T06:23:48;42.70;37.40
30047;DHT22;16878;52.542;13.426;2022-07-19T06:26:14;42.80;37.20
30047;DHT22;16878;52.542;13.426;2022-07-19T06:28:40;42.80;37.30
30047;DHT22;16878;52.542;13.426;2022-07-19T06:31:09;43.10;36.80
30047;DHT22;16878;52.542;13.426;2022-07-19T06:33:35;43.30;36.70
30047;DHT22;16878;52.542;13.426;2022-07-19T06:36:00;43.10;36.60
30047;DHT22;16878;52.542;13.426;2022-07-19T06:38:26;43.30;36.40
30047;DHT22;16878;52.542;13.426;2022-07-19T06:40:51;43.10;36.30
30047;DHT22;16878;52.542;13.426;2022-07-19T06:43:17;43.10;36.30
30047;DHT22;16878;52.542;13.426;2022-07-19T06:45:43;43.00;36.20
30047;DHT22;16878;52.542;13.426;2022-07-19T06:48:08;42.80;35.90
30047;DHT22;16878;52.542;13.426;2022-07-19T06:50:34;42.70;36.00
30047;DHT22;16878;52.542;13.426;2022-07-19T06:52:59;42.80;39.50
30047;DHT22;16878;52.542;13.426;2022-07-19T06:55:25;42.50;39.90
30047;DHT22;16878;52.542;13.426;2022-07-19T06:57:51;42.20;36.70
30047;DHT22;16878;52.542;13.426;2022-07-19T07:00:17;42.20;37.50
30047;DHT22;16878;52.542;13.426;2022-07-19T07:02:42;41.80;39.90
30047;DHT22;16878;52.542;13.426;2022-07-19T07:05:09;41.10;39.90
30047;DHT22;16878;52.542;13.426;2022-07-19T07:07:34;40.90;39.30
30047;DHT22;16878;52.542;13.426;2022-07-19T07:10:00;40.60;39.30
30047;DHT22;16878;52.542;13.426;2022-07-19T07:12:27;40.50;39.10
30047;DHT22;16878;52.542;13.426;2022-07-19T07:14:53;40.20;39.50
30047;DHT22;16878;52.542;13.426;2022-07-19T07:17:18;39.80;37.30
30047;DHT22;16878;52.542;13.426;2022-07-19T07:19:44;39.50;38.40
30047;DHT22;16878;52.542;13.426;2022-07-19T07:22:10;37.90;38.50
30047;DHT22;16878;52.542;13.426;2022-07-19T07:24:35;36.20;40.50
30047;DHT22;16878;52.542;13.426;2022-07-19T07:27:01;34.40;43.30
30047;DHT22;16878;52.542;13.426;2022-07-19T07:29:27;32.90;45.20
30047;DHT22;16878;52.542;13.426;2022-07-19T07:31:55;31.70;43.40
30047;DHT22;16878;52.542;13.426;2022-07-19T07:34:21;30.60;47.10
30047;DHT22;16878;52.542;13.426;2022-07-19T07:36:47;29.70;48.60
30047;DHT22;16878;52.542;13.426;2022-07-19T07:39:13;29.00;49.60
30047;DHT22;16878;52.542;13.426;2022-07-19T07:41:38;28.40;49.50
30047;DHT22;16878;52.542;13.426;2022-07-19T07:44:04;28.00;51.30
30047;DHT22;16878;52.542;13.426;2022-07-19T07:46:30;27.70;51.50
30047;DHT22;16878;52.542;13.426;2022-07-19T07:48:55;27.30;50.60
30047;DHT22;16878;52.542;13.426;2022-07-19T07:51:21;27.10;52.00
30047;DHT22;16878;52.542;13.426;2022-07-19T07:53:47;27.10;52.30
30047;DHT22;16878;52.542;13.426;2022-07-19T07:56:12;26.90;51.20
30047;DHT22;16878;52.542;13.426;2022-07-19T07:58:38;27.10;49.90
30047;DHT22;16878;52.542;13.426;2022-07-19T08:01:04;27.00;51.00
30047;DHT22;16878;52.542;13.426;2022-07-19T08:03:29;27.30;49.80
30047;DHT22;16878;52.542;13.426;2022-07-19T08:05:55;27.50;48.80
30047;DHT22;16878;52.542;13.426;2022-07-19T08:08:23;27.60;48.60
30047;DHT22;16878;52.542;13.426;2022-07-19T08:10:52;27.60;48.90
30047;DHT22;16878;52.542;13.426;2022-07-19T08:13:18;27.60;49.10
30047;DHT22;16878;52.542;13.426;2022-07-19T08:15:44;27.60;48.50
30047;DHT22;16878;52.542;13.426;2022-07-19T08:18:09;27.70;48.30
30047;DHT22;16878;52.542;13.426;2022-07-19T08:20:35;27.60;48.60
30047;DHT22;16878;52.542;13.426;2022-07-19T08:23:00;27.80;48.70
30047;DHT22;16878;52.542;13.426;2022-07-19T08:25:26;27.80;48.70
30047;DHT22;16878;52.542;13.426;2022-07-19T08:27:51;27.90;48.70
30047;DHT22;16878;52.542;13.426;2022-07-19T08:30:17;27.90;48.80
30047;DHT22;16878;52.542;13.426;2022-07-19T08:32:43;27.90;48.60
30047;DHT22;16878;52.542;13.426;2022-07-19T08:35:08;27.90;48.60
30047;DHT22;16878;52.542;13.426;2022-07-19T08:37:34;27.80;48.90
30047;DHT22;16878;52.542;13.426;2022-07-19T08:40:00;27.80;49.00
30047;DHT22;16878;52.542;13.426;2022-07-19T08:42:26;27.70;49.00
30047;DHT22;16878;52.542;13.426;2022-07-19T08:44:52;27.60;49.20
30047;DHT22;16878;52.542;13.426;2022-07-19T08:47:19;27.60;49.50
30047;DHT22;16878;52.542;13.426;2022-07-19T08:49:45;27.50;49.50
30047;DHT22;16878;52.542;13.426;2022-07-19T08:52:11;27.50;49.50
30047;DHT22;16878;52.542;13.426;2022-07-19T08:54:37;27.70;49.30
30047;DHT22;16878;52.542;13.426;2022-07-19T08:57:02;28.00;49.20
30047;DHT22;16878;52.542;13.426;2022-07-19T08:59:46;28.20;49.10
30047;DHT22;16878;52.542;13.426;2022-07-19T09:02:12;28.10;49.10
30047;DHT22;16878;52.542;13.426;2022-07-19T09:04:38;28.00;49.00
30047;DHT22;16878;52.542;13.426;2022-07-19T09:07:03;27.90;48.60
30047;DHT22;16878;52.542;13.426;2022-07-19T09:09:30;27.80;49.40
30047;DHT22;16878;52.542;13.426;2022-07-19T09:11:56;27.70;49.00
30047;DHT22;16878;52.542;13.426;2022-07-19T09:14:24;27.70;49.20
30047;DHT22;16878;52.542;13.426;2022-07-19T09:19:33;28.00;48.60
30047;DHT22;16878;52.542;13.426;2022-07-19T09:22:20;28.30;47.90
30047;DHT22;16878;52.542;13.426;2022-07-19T09:24:46;28.60;47.70
30047;DHT22;16878;52.542;13.426;2022-07-19T09:27:18;29.00;47.20
30047;DHT22;16878;52.542;13.426;2022-07-19T09:29:44;29.00;46.50
30047;DHT22;16878;52.542;13.426;2022-07-19T09:32:11;29.10;46.10
30047;DHT22;16878;52.542;13.426;2022-07-19T09:34:39;28.80;46.70
30047;DHT22;16878;52.542;13.426;2022-07-19T09:37:12;28.60;47.10
30047;DHT22;16878;52.542;13.426;2022-07-19T09:39:38;28.50;47.40
30047;DHT22;16878;52.542;13.426;2022-07-19T09:42:14;28.80;47.30
30047;DHT22;16878;52.542;13.426;2022-07-19T09:44:40;29.10;47.00
30047;DHT22;16878;52.542;13.426;2022-07-19T09:47:05;29.00;47.20
30047;DHT22;16878;52.542;13.426;2022-07-19T09:49:31;29.10;47.00
30047;DHT22;16878;52.542;13.426;2022-07-19T09:51:56;29.30;46.90
30047;DHT22;16878;52.542;13.426;2022-07-19T09:54:24;29.30;46.40
30047;DHT22;16878;52.542;13.426;2022-07-19T09:56:50;29.30;46.20
30047;DHT22;16878;52.542;13.426;2022-07-19T09:59:16;29.30;46.10
30047;DHT22;16878;52.542;13.426;2022-07-19T10:01:43;29.30;46.40
30047;DHT22;16878;52.542;13.426;2022-07-19T10:04:12;29.10;45.60
30047;DHT22;16878;52.542;13.426;2022-07-19T10:06:39;28.90;45.20
30047;DHT22;16878;52.542;13.426;2022-07-19T10:09:05;28.80;45.50
30047;DHT22;16878;52.542;13.426;2022-07-19T10:11:31;28.90;45.40
30047;DHT22;16878;52.542;13.426;2022-07-19T10:13:57;28.80;44.70
30047;DHT22;16878;52.542;13.426;2022-07-19T10:19:26;28.70;45.10
30047;DHT22;16878;52.542;13.426;2022-07-19T10:21:53;28.70;45.50
30047;DHT22;16878;52.542;13.426;2022-07-19T10:27:03;28.70;46.00
30047;DHT22;16878;52.542;13.426;2022-07-19T10:29:28;28.60;45.80
30047;DHT22;16878;52.542;13.426;2022-07-19T10:32:04;28.90;45.40
30047;DHT22;16878;52.542;13.426;2022-07-19T10:34:30;28.90;45.60
30047;DHT22;16878;52.542;13.426;2022-07-19T10:36:55;29.00;45.40
30047;DHT22;16878;52.542;13.426;2022-07-19T10:39:37;29.00;45.20
30047;DHT22;16878;52.542;13.426;2022-07-19T10:42:11;28.90;43.70
30047;DHT22;16878;52.542;13.426;2022-07-19T10:45:22;28.90;43.80
30047;DHT22;16878;52.542;13.426;2022-07-19T10:50:06;28.90;44.00
30047;DHT22;16878;52.542;13.426;2022-07-19T10:52:35;28.90;44.30
30047;DHT22;16878;52.542;13.426;2022-07-19T10:57:43;29.00;44.40
30047;DHT22;16878;52.542;13.426;2022-07-19T11:00:22;29.20;44.00
30047;DHT22;16878;52.542;13.426;2022-07-19T11:02:48;29.30;43.40
30047;DHT22;16878;52.542;13.426;2022-07-19T11:05:21;29.20;43.90
30047;DHT22;16878;52.542;13.426;2022-07-19T11:07:47;29.20;44.10
30047;DHT22;16878;52.542;13.426;2022-07-19T11:10:13;29.30;43.90
30047;DHT22;16878;52.542;13.426;2022-07-19T11:12:46;29.60;43.80
30047;DHT22;16878;52.542;13.426;2022-07-19T11:15:11;29.70;43.80
30047;DHT22;16878;52.542;13.426;2022-07-19T11:17:37;29.60;43.70
30047;DHT22;16878;52.542;13.426;2022-07-19T11:22:33;29.60;43.60
30047;DHT22;16878;52.542;13.426;2022-07-19T11:24:59;29.50;43.10
30047;DHT22;16878;52.542;13.426;2022-07-19T11:27:25;29.60;43.30
30047;DHT22;16878;52.542;13.426;2022-07-19T11:29:54;29.60;43.20
30047;DHT22;16878;52.542;13.426;2022-07-19T11:32:19;29.60;43.10
30047;DHT22;16878;52.542;13.426;2022-07-19T11:34:54;29.60;43.10
30047;DHT22;16878;52.542;13.426;2022-07-19T11:37:22;29.60;42.70
30047;DHT22;16878;52.542;13.426;2022-07-19T11:39:48;29.70;42.60
30047;DHT22;16878;52.542;13.426;2022-07-19T11:42:15;29.60;42.20
30047;DHT22;16878;52.542;13.426;2022-07-19T11:44:40;29.70;42.40
30047;DHT22;16878;52.542;13.426;2022-07-19T11:47:06;29.70;42.50
30047;DHT22;16878;52.542;13.426;2022-07-19T11:49:38;29.70;43.00
30047;DHT22;16878;52.542;13.426;2022-07-19T11:52:03;29.70;43.60
30047;DHT22;16878;52.542;13.426;2022-07-19T11:54:29;29.70;43.10
30047;DHT22;16878;52.542;13.426;2022-07-19T11:56:54;29.80;43.70
30047;DHT22;16878;52.542;13.426;2022-07-19T11:59:20;29.80;42.90
30047;DHT22;16878;52.542;13.426;2022-07-19T12:01:45;29.80;42.90
30047;DHT22;16878;52.542;13.426;2022-07-19T12:04:11;29.90;42.20
30047;DHT22;16878;52.542;13.426;2022-07-19T12:06:38;30.00;41.60
30047;DHT22;16878;52.542;13.426;2022-07-19T12:09:26;30.00;41.50
30047;DHT22;16878;52.542;13.426;2022-07-19T12:11:51;30.00;41.60
30047;DHT22;16878;52.542;13.426;2022-07-19T12:14:18;30.10;42.00
30047;DHT22;16878;52.542;13.426;2022-07-19T12:16:44;30.10;41.10
30047;DHT22;16878;52.542;13.426;2022-07-19T12:19:10;30.10;41.50
30047;DHT22;16878;52.542;13.426;2022-07-19T12:24:23;30.30;41.80
30047;DHT22;16878;52.542;13.426;2022-07-19T12:29:22;30.30;40.60
30047;DHT22;16878;52.542;13.426;2022-07-19T12:31:48;30.50;40.90
30047;DHT22;16878;52.542;13.426;2022-07-19T12:34:14;30.40;40.70
30047;DHT22;16878;52.542;13.426;2022-07-19T12:36:40;30.40;40.70
30047;DHT22;16878;52.542;13.426;2022-07-19T12:39:15;30.40;40.60
30047;DHT22;16878;52.542;13.426;2022-07-19T12:41:51;30.40;40.40
30047;DHT22;16878;52.542;13.426;2022-07-19T12:44:17;30.30;40.20
30047;DHT22;16878;52.542;13.426;2022-07-19T12:46:42;30.30;40.20
30047;DHT22;16878;52.542;13.426;2022-07-19T12:49:09;30.30;40.30
30047;DHT22;16878;52.542;13.426;2022-07-19T12:51:34;30.60;39.50
30047;DHT22;16878;52.542;13.426;2022-07-19T12:54:00;30.70;39.30
30047;DHT22;16878;52.542;13.426;2022-07-19T12:56:26;30.80;39.20
30047;DHT22;16878;52.542;13.426;2022-07-19T12:58:51;31.00;39.30
30047;DHT22;16878;52.542;13.426;2022-07-19T13:01:35;31.20;39.00
30047;DHT22;16878;52.542;13.426;2022-07-19T13:04:00;31.30;38.90
30047;DHT22;16878;52.542;13.426;2022-07-19T13:06:26;31.40;38.90
30047;DHT22;16878;52.542;13.426;2022-07-19T13:08:51;31.30;39.40
30047;DHT22;16878;52.542;13.426;2022-07-19T13:11:17;31.20;39.80
30047;DHT22;16878;52.542;13.426;2022-07-19T13:13:42;31.10;39.50
30047;DHT22;16878;52.542;13.426;2022-07-19T13:16:08;31.20;39.30
30047;DHT22;16878;52.542;13.426;2022-07-19T13:18:34;31.10;39.30
30047;DHT22;16878;52.542;13.426;2022-07-19T13:20:59;31.30;39.00
30047;DHT22;16878;52.542;13.426;2022-07-19T13:23:25;31.20;39.00
30047;DHT22;16878;52.542;13.426;2022-07-19T13:25:50;31.20;38.80
30047;DHT22;16878;52.542;13.426;2022-07-19T13:28:16;31.30;39.10
30047;DHT22;16878;52.542;13.426;2022-07-19T13:30:42;31.30;38.90
30047;DHT22;16878;52.542;13.426;2022-07-19T13:33:09;31.20;38.90
30047;DHT22;16878;52.542;13.426;2022-07-19T13:35:34;31.20;39.00
30047;DHT22;16878;52.542;13.426;2022-07-19T13:38:00;31.10;38.90
30047;DHT22;16878;52.542;13.426;2022-07-19T13:40:25;31.10;39.20
30047;DHT22;16878;52.542;13.426;2022-07-19T13:42:51;31.10;39.40
30047;DHT22;16878;52.542;13.426;2022-07-19T13:45:19;31.00;39.30
30047;DHT22;16878;52.542;13.426;2022-07-19T13:47:45;31.00;39.20
30047;DHT22;16878;52.542;13.426;2022-07-19T13:50:11;31.20;39.50
30047;DHT22;16878;52.542;13.426;2022-07-19T13:52:36;31.10;39.60
30047;DHT22;16878;52.542;13.426;2022-07-19T13:55:03;31.10;40.00
30047;DHT22;16878;52.542;13.426;2022-07-19T13:57:30;31.20;39.70
30047;DHT22;16878;52.542;13.426;2022-07-19T13:59:55;31.20;39.80
30047;DHT22;16878;52.542;13.426;2022-07-19T14:02:21;31.20;39.50
30047;DHT22;16878;52.542;13.426;2022-07-19T14:04:47;31.10;39.50
30047;DHT22;16878;52.542;13.426;2022-07-19T14:07:12;31.10;39.50
30047;DHT22;16878;52.542;13.426;2022-07-19T14:09:38;31.10;39.70
30047;DHT22;16878;52.542;13.426;2022-07-19T14:12:04;31.10;39.70
30047;DHT22;16878;52.542;13.426;2022-07-19T14:14:29;31.20;39.70
30047;DHT22;16878;52.542;13.426;2022-07-19T14:16:57;31.30;39.20
30047;DHT22;16878;52.542;13.426;2022-07-19T14:19:22;31.30;39.20
30047;DHT22;16878;52.542;13.426;2022-07-19T14:21:48;31.30;39.90
30047;DHT22;16878;52.542;13.426;2022-07-19T14:24:13;31.20;39.10
30047;DHT22;16878;52.542;13.426;2022-07-19T14:26:39;31.20;39.30
30047;DHT22;16878;52.542;13.426;2022-07-19T14:29:04;31.20;39.40
30047;DHT22;16878;52.542;13.426;2022-07-19T14:31:30;31.10;39.60
30047;DHT22;16878;52.542;13.426;2022-07-19T14:33:55;31.10;39.80
30047;DHT22;16878;52.542;13.426;2022-07-19T14:36:21;31.10;39.70
30047;DHT22;16878;52.542;13.426;2022-07-19T14:38:46;31.10;40.00
30047;DHT22;16878;52.542;13.426;2022-07-19T14:41:12;31.10;39.90
30047;DHT22;16878;52.542;13.426;2022-07-19T14:43:37;31.10;39.70
30047;DHT22;16878;52.542;13.426;2022-07-19T14:46:03;31.30;39.30
30047;DHT22;16878;52.542;13.426;2022-07-19T14:48:29;31.60;38.80
30047;DHT22;16878;52.542;13.426;2022-07-19T14:50:54;31.50;39.00
30047;DHT22;16878;52.542;13.426;2022-07-19T14:53:20;31.40;39.10
30047;DHT22;16878;52.542;13.426;2022-07-19T14:55:45;31.40;39.00
30047;DHT22;16878;52.542;13.426;2022-07-19T14:58:11;31.40;39.10
30047;DHT22;16878;52.542;13.426;2022-07-19T15:00:36;31.20;38.90
30047;DHT22;16878;52.542;13.426;2022-07-19T15:03:03;31.30;39.10
30047;DHT22;16878;52.542;13.426;2022-07-19T15:05:28;31.40;39.10
30047;DHT22;16878;52.542;13.426;2022-07-19T15:07:54;31.30;39.10
30047;DHT22;16878;52.542;13.426;2022-07-19T15:10:19;31.30;38.60
30047;DHT22;16878;52.542;13.426;2022-07-19T15:12:45;31.20;38.50
30047;DHT22;16878;52.542;13.426;2022-07-19T15:15:11;31.30;38.40
30047;DHT22;16878;52.542;13.426;2022-07-19T15:17:36;31.20;38.80
30047;DHT22;16878;52.542;13.426;2022-07-19T15:20:02;31.20;39.00
30047;DHT22;16878;52.542;13.426;2022-07-19T15:22:28;31.20;39.20
30047;DHT22;16878;52.542;13.426;2022-07-19T15:24:54;31.20;39.20
30047;DHT22;16878;52.542;13.426;2022-07-19T15:27:20;31.40;38.40
30047;DHT22;16878;52.542;13.426;2022-07-19T15:29:45;31.40;38.70
30047;DHT22;16878;52.542;13.426;2022-07-19T15:32:11;31.60;38.30